Terminal Aerodrome Forecast
Issued by NWS Jackson, MS

Current Version | Previous Version | Text Only | Print | Product List | Glossary On
Versions: 1 2 3 4 5 6 7 8 9 10 11 12 13 14
000
FTUS44 KJAN 011236 AAA
TAFHBG
TAF AMD
KHBG 011236Z 0113/0212 00000KT 3/4SM BR OVC003
     FM011400 16003KT 3SM BR OVC005
     FM011500 17009KT 5SM SHRA VCTS OVC040CB
     FM011900 16009KT 6SM -SHRA VCTS BKN050CB
     FM020000 14005KT P6SM BKN050
     FM020900 10004KT 5SM BR BKN007 OVC015=

USA.gov is the U.S. government's official web portal to all federal, state and local government web resources and services.